Deerfield Street, New Jersey
Current Conditions -  °F | °C
As of 12:54 AM on Saturday 25 Oct 2014 (Local Time) from KMIV Reporting Station
Clear Clear  
Wind Chill: 53°   Ceiling: Unl
Heat Index: 53°   Visibility: 10mi
Dew Point: 40°   Wind: 9mph
Humidity: 61%   Direction: 300°WNW
Pressure: 29.89"   Gusts: NA
Location:  39.53°N, 75.23°W
Report Text: KMIV 250454Z AUTO 30008KT 10SM CLR 12/04 A2989 RMK AO2 SLP121 T01170044 402000072
Loading
Personal Weather Stations






























Interactive Weather Map
Tropical Storm Tracking
New forecast layout! Learn more

10-Day Weather Forecast

Advertisements
Track Severe Weather on mobile